Hershey, Nebraska
Current Conditions -  °F | °C
As of 2:06 AM on Friday 19 Dec 2014 (Local Time) from KLBF Reporting Station
Haze Haze  
Wind Chill: 15°   Ceiling: Unl
Heat Index: 15°   Visibility: 4mi
Dew Point: 10°   Wind: 3mph
Humidity: 80%   Direction: 330°NNW
Pressure: 30.1"   Gusts: NA
Location:  41.16°N, 101°W
Report Text: KLBF 190806Z AUTO 33003KT 4SM HZ CLR M09/M12 A3010 RMK AO2 T10941122
Loading
Personal Weather Stations






























Interactive Weather Map New forecast layout! Learn more

10-Day Weather Forecast

Advertisements
Track Severe Weather on mobile